createdAt,value
2022-11-06T00:04:55.040Z,101418.09
2022-11-06T00:09:59.920Z,101416.53
2022-11-06T00:15:03.352Z,101413.81
2022-11-06T00:20:07.986Z,101421.78
2022-11-06T00:25:12.839Z,101414.88
2022-11-06T00:30:16.052Z,101409.69
2022-11-06T00:35:19.593Z,101409.00
2022-11-06T00:40:24.114Z,101390.81
2022-11-06T00:45:27.171Z,101395.44
2022-11-06T00:50:30.333Z,101393.63
2022-11-06T00:55:35.117Z,101383.28
2022-11-06T01:00:38.401Z,101383.28
2022-11-06T01:05:41.972Z,101388.72
2022-11-06T01:10:46.697Z,101375.91
2022-11-06T01:15:49.698Z,101379.59
2022-11-06T01:20:53.296Z,101363.34
2022-11-06T01:26:02.241Z,101373.56
2022-11-06T01:31:06.796Z,101375.44
2022-11-06T01:36:11.227Z,101383.47
2022-11-06T01:41:17.000Z,101372.97
2022-11-06T01:46:21.993Z,101378.41
2022-11-06T01:51:28.787Z,101378.41
2022-11-06T01:56:33.623Z,101375.03
2022-11-06T02:01:37.018Z,101358.41
2022-11-06T02:06:41.147Z,101368.91
2022-11-06T02:11:48.714Z,101346.09
2022-11-06T02:16:55.873Z,101331.09
2022-11-06T02:22:22.562Z,101334.69
2022-11-06T02:27:29.975Z,101340.69
2022-11-06T02:32:39.130Z,101328.38
2022-11-06T02:37:46.584Z,101325.69
2022-11-06T02:42:55.230Z,101323.84
2022-11-06T02:48:02.635Z,101319.78
2022-11-06T02:53:08.191Z,101333.78
2022-11-06T02:58:17.529Z,101303.25
2022-11-06T03:03:25.503Z,101314.78
2022-11-06T03:08:35.960Z,101312.28
2022-11-06T03:13:50.900Z,101316.78
2022-11-06T03:18:59.789Z,101302.97
2022-11-06T03:24:08.949Z,101298.63
2022-11-06T03:29:18.618Z,101299.63
2022-11-06T03:34:29.896Z,101292.59
2022-11-06T03:39:36.533Z,101294.47
2022-11-06T03:44:45.244Z,101284.50
2022-11-06T03:49:53.033Z,101265.03
2022-11-06T03:54:59.783Z,101266.38
2022-11-06T04:00:09.304Z,101243.84
2022-11-06T04:05:21.213Z,101250.09
2022-11-06T04:10:38.332Z,101243.03
2022-11-06T04:15:49.299Z,101257.97
2022-11-06T04:21:25.143Z,101253.72
2022-11-06T04:26:39.861Z,101242.34
2022-11-06T04:31:56.285Z,101233.69
2022-11-06T04:37:07.613Z,101228.44
2022-11-06T04:42:18.979Z,101225.09
2022-11-06T04:47:25.197Z,101216.25
2022-11-06T04:52:29.969Z,101200.50
2022-11-06T04:57:33.368Z,101197.03
2022-11-06T05:02:38.072Z,101196.19
2022-11-06T05:07:41.162Z,101188.31
2022-11-06T05:12:44.304Z,101181.28
2022-11-06T05:17:48.847Z,101170.94
2022-11-06T05:23:01.292Z,101181.31
2022-11-06T05:28:07.232Z,101176.03
2022-11-06T05:33:11.991Z,101177.63
2022-11-06T05:38:15.743Z,101182.78
2022-11-06T05:43:18.894Z,101174.88
2022-11-06T05:48:23.416Z,101173.13
2022-11-06T05:53:26.391Z,101152.25
2022-11-06T05:58:29.745Z,101151.28
2022-11-06T06:03:34.211Z,101147.00
2022-11-06T06:08:37.460Z,101133.88
2022-11-06T06:13:40.696Z,101115.28
2022-11-06T06:18:45.257Z,101121.44
2022-11-06T06:23:48.295Z,101121.44
2022-11-06T06:28:51.466Z,101127.59
2022-11-06T06:33:56.066Z,101137.25
2022-11-06T06:38:59.178Z,101142.63
2022-11-06T06:44:02.366Z,101125.34
2022-11-06T06:49:07.088Z,101115.50
2022-11-06T06:54:10.662Z,101097.88
2022-11-06T06:59:14.174Z,101107.34
2022-11-06T07:04:18.968Z,101112.88
2022-11-06T07:09:22.086Z,101100.19
2022-11-06T07:14:25.219Z,101110.09
2022-11-06T07:19:30.094Z,101094.41
2022-11-06T07:24:33.159Z,101093.56
2022-11-06T07:29:36.261Z,101089.03
2022-11-06T07:34:40.732Z,101100.50
2022-11-06T07:39:43.874Z,101106.56
2022-11-06T07:44:47.197Z,101092.56
2022-11-06T07:49:52.082Z,101091.16
2022-11-06T07:54:55.251Z,101081.06
2022-11-06T07:59:58.280Z,101078.75
2022-11-06T08:05:03.106Z,101089.66
2022-11-06T08:10:07.749Z,101077.69
2022-11-06T08:15:11.829Z,101064.53
2022-11-06T08:20:16.409Z,101070.44
2022-11-06T08:25:19.712Z,101046.81
2022-11-06T08:30:26.267Z,101056.44
2022-11-06T08:35:31.058Z,101050.91
2022-11-06T08:40:34.947Z,101037.41
2022-11-06T08:45:39.144Z,101034.41
2022-11-06T08:50:43.795Z,101014.97
2022-11-06T08:55:47.058Z,101023.47
2022-11-06T09:00:50.654Z,101003.34
2022-11-06T09:05:55.669Z,101000.97
2022-11-06T09:10:59.376Z,101005.31
2022-11-06T09:16:02.590Z,100987.81
2022-11-06T09:21:07.739Z,100997.84
2022-11-06T09:26:10.995Z,100985.97
2022-11-06T09:31:14.270Z,100991.47
2022-11-06T09:36:19.299Z,100992.63
2022-11-06T09:41:34.873Z,100988.38
2022-11-06T09:46:43.746Z,100983.09
2022-11-06T09:51:54.710Z,100991.09
2022-11-06T09:57:03.386Z,100994.66
2022-11-06T10:02:24.226Z,100972.66
2022-11-06T10:07:31.568Z,100975.56
2022-11-06T10:12:56.157Z,100948.59
2022-11-06T10:18:07.950Z,100950.13
2022-11-06T10:23:20.738Z,100952.19
2022-11-06T10:28:48.236Z,100949.88
2022-11-06T10:33:59.650Z,100939.88
2022-11-06T10:39:06.770Z,100928.28
2022-11-06T10:44:16.634Z,100920.50
2022-11-06T10:49:29.685Z,100915.22
2022-11-06T10:54:47.775Z,100901.16
2022-11-06T10:59:51.626Z,100888.09
2022-11-06T11:04:58.130Z,100874.63
2022-11-06T11:10:28.077Z,100877.47
2022-11-06T11:15:35.874Z,100875.09
2022-11-06T11:20:40.940Z,100869.94
2022-11-06T11:25:48.096Z,100860.97
2022-11-06T11:31:06.136Z,100857.38
2022-11-06T11:36:11.561Z,100851.09
2022-11-06T11:41:24.000Z,100854.53
2022-11-06T11:46:27.967Z,100844.66
2022-11-06T11:51:36.253Z,100835.84
2022-11-06T11:57:04.209Z,100820.84
2022-11-06T12:02:22.147Z,100813.91
2022-11-06T12:07:33.310Z,100807.03
2022-11-06T12:12:38.415Z,100792.09
2022-11-06T12:17:44.261Z,100770.91
2022-11-06T12:22:49.172Z,100774.50
2022-11-06T12:27:56.582Z,100759.63
2022-11-06T12:33:06.034Z,100763.88
2022-11-06T12:38:19.035Z,100756.75
2022-11-06T12:43:30.645Z,100765.44
2022-11-06T12:48:51.643Z,100758.19
2022-11-06T12:54:11.241Z,100759.59
2022-11-06T12:59:31.399Z,100747.88
2022-11-06T13:04:42.666Z,100753.25
2022-11-06T13:09:54.500Z,100740.38
2022-11-06T13:15:10.229Z,100746.06
2022-11-06T13:20:25.212Z,100754.22
2022-11-06T13:25:39.730Z,100750.97
2022-11-06T13:30:46.221Z,100740.91
2022-11-06T13:35:49.664Z,100736.19
2022-11-06T13:41:03.303Z,100734.16
2022-11-06T13:46:14.996Z,100725.75
2022-11-06T13:51:27.605Z,100727.22
2022-11-06T13:56:48.494Z,100718.28
2022-11-06T14:02:02.505Z,100717.13
2022-11-06T14:07:08.600Z,100711.38
2022-11-06T14:12:18.517Z,100710.00
2022-11-06T14:17:25.333Z,100700.94
2022-11-06T14:22:30.912Z,100707.66
2022-11-06T14:28:07.338Z,100701.25
2022-11-06T14:33:34.063Z,100691.22
2022-11-06T14:38:39.281Z,100666.53
2022-11-06T14:43:52.310Z,100667.97
2022-11-06T14:49:10.061Z,100668.69
2022-11-06T14:54:25.299Z,100664.09
2022-11-06T14:59:35.489Z,100639.13
2022-11-06T15:04:45.486Z,100628.25
2022-11-06T15:09:50.024Z,100627.91
2022-11-06T15:15:03.780Z,100626.00
2022-11-06T15:20:24.665Z,100616.00
2022-11-06T15:25:30.158Z,100603.63
2022-11-06T15:30:42.229Z,100584.09
2022-11-06T15:35:49.767Z,100587.44
2022-11-06T15:41:07.672Z,100572.34
2022-11-06T15:52:50.400Z,100555.22
2022-11-06T15:57:55.728Z,100541.84
2022-11-06T16:03:02.815Z,100526.75
2022-11-06T16:08:07.885Z,100521.41
2022-11-06T16:13:14.640Z,100515.13
2022-11-06T16:18:22.817Z,100506.25
2022-11-06T16:23:36.270Z,100495.56
2022-11-06T16:28:48.212Z,100499.56
2022-11-06T16:33:58.973Z,100490.59
2022-11-06T16:39:51.011Z,100475.59
2022-11-06T16:45:04.197Z,100509.38
2022-11-06T16:50:44.055Z,100517.97
2022-11-06T16:55:54.983Z,100518.63
2022-11-06T17:01:02.061Z,100507.00
2022-11-06T17:06:05.926Z,100492.13
2022-11-06T17:11:21.876Z,100503.34
2022-11-06T17:16:28.628Z,100497.94
2022-11-06T17:21:31.586Z,100510.13
2022-11-06T17:26:35.222Z,100514.56
2022-11-06T17:31:40.064Z,100504.91
2022-11-06T17:36:44.004Z,100524.16
2022-11-06T17:41:47.202Z,100525.00
2022-11-06T17:46:52.987Z,100522.53
2022-11-06T17:52:00.403Z,100527.03
2022-11-06T17:57:05.968Z,100513.25
2022-11-06T18:02:25.437Z,100503.84
2022-11-06T18:07:38.386Z,100500.63
2022-11-06T18:12:41.635Z,100498.25
2022-11-06T18:17:46.349Z,100498.47
2022-11-06T18:22:49.455Z,100497.69
2022-11-06T18:27:52.705Z,100498.63
2022-11-06T18:32:57.325Z,100507.69
2022-11-06T18:38:00.523Z,100496.44
2022-11-06T18:43:03.680Z,100491.41
2022-11-06T18:48:09.508Z,100500.19
2022-11-06T18:53:12.720Z,100503.06
2022-11-06T18:58:16.089Z,100501.16
2022-11-06T19:03:20.891Z,100505.16
2022-11-06T19:08:24.308Z,100493.78
2022-11-06T19:13:27.548Z,100501.81
2022-11-06T19:18:34.836Z,100489.59
2022-11-06T19:23:38.599Z,100478.50
2022-11-06T19:28:42.130Z,100487.47
2022-11-06T19:33:47.103Z,100495.41
2022-11-06T19:38:50.139Z,100496.50
2022-11-06T19:43:53.512Z,100504.66
2022-11-06T19:48:57.952Z,100528.59
2022-11-06T19:54:01.688Z,100509.03
2022-11-06T19:59:05.294Z,100523.38
2022-11-06T20:04:10.148Z,100504.53
2022-11-06T20:09:13.231Z,100515.22
2022-11-06T20:14:21.852Z,100511.84
2022-11-06T20:19:26.393Z,100519.09
2022-11-06T20:24:29.939Z,100513.19
2022-11-06T20:29:33.370Z,100513.44
2022-11-06T20:34:38.234Z,100512.78
2022-11-06T20:39:52.250Z,100530.41
2022-11-06T20:44:55.782Z,100531.31
2022-11-06T20:50:00.580Z,100535.63
2022-11-06T20:55:03.738Z,100547.84
2022-11-06T21:00:07.867Z,100553.91
2022-11-06T21:05:14.905Z,100564.50
2022-11-06T21:10:18.398Z,100568.88
2022-11-06T21:15:21.632Z,100567.16
2022-11-06T21:20:26.242Z,100576.63
2022-11-06T21:25:29.356Z,100573.28
2022-11-06T21:30:32.464Z,100583.25
2022-11-06T21:35:37.674Z,100583.38
2022-11-06T21:40:41.237Z,100597.41
2022-11-06T21:45:44.267Z,100604.56
2022-11-06T21:50:48.723Z,100615.50
2022-11-06T21:56:00.851Z,100612.78
2022-11-06T22:01:04.942Z,100607.34
2022-11-06T22:06:12.016Z,100601.88
2022-11-06T22:11:17.312Z,100616.88
2022-11-06T22:16:22.876Z,100613.28
2022-11-06T22:21:29.711Z,100612.56
2022-11-06T22:26:34.630Z,100621.44
2022-11-06T22:31:38.081Z,100619.88
2022-11-06T22:36:43.031Z,100627.84
2022-11-06T22:41:46.730Z,100640.09
2022-11-06T22:46:50.149Z,100632.19
2022-11-06T22:51:54.795Z,100642.91
2022-11-06T22:56:58.169Z,100650.03
2022-11-06T23:02:01.272Z,100643.28
2022-11-06T23:07:06.089Z,100646.22
2022-11-06T23:12:09.589Z,100650.66
2022-11-06T23:17:12.917Z,100658.69
2022-11-06T23:22:40.282Z,100662.22
2022-11-06T23:27:49.477Z,100662.94
2022-11-06T23:32:53.343Z,100656.59
2022-11-06T23:37:58.012Z,100664.41
2022-11-06T23:43:01.247Z,100663.59
2022-11-06T23:48:08.483Z,100667.28
2022-11-06T23:53:13.680Z,100664.63
2022-11-06T23:58:16.973Z,100683.91
